sensor_id;sensor_type;location;lat;lon;timestamp;pressure;altitude;pressure_sealevel;temperature;humidity
36828;BME280;22766;48.042;11.192;2023-03-16T00:00:51;95350.53;;;0.87;100.00
36828;BME280;22766;48.042;11.192;2023-03-16T00:03:18;95354.91;;;0.85;100.00
36828;BME280;22766;48.042;11.192;2023-03-16T00:05:50;95339.25;;;0.93;100.00
36828;BME280;22766;48.042;11.192;2023-03-16T00:08:17;95335.78;;;0.94;100.00
36828;BME280;22766;48.042;11.192;2023-03-16T00:10:45;95338.75;;;0.86;100.00
36828;BME280;22766;48.042;11.192;2023-03-16T00:13:17;95337.03;;;0.87;100.00
36828;BME280;22766;48.042;11.192;2023-03-16T00:15:54;95331.66;;;0.77;100.00
36828;BME280;22766;48.042;11.192;2023-03-16T00:18:23;95330.19;;;0.73;100.00
36828;BME280;22766;48.042;11.192;2023-03-16T00:20:53;95340.75;;;0.66;100.00
36828;BME280;22766;48.042;11.192;2023-03-16T00:23:21;95346.28;;;0.58;100.00
36828;BME280;22766;48.042;11.192;2023-03-16T00:25:58;95337.34;;;0.51;100.00
36828;BME280;22766;48.042;11.192;2023-03-16T00:28:26;95343.66;;;0.44;100.00
36828;BME280;22766;48.042;11.192;2023-03-16T00:30:53;95333.59;;;0.43;100.00
36828;BME280;22766;48.042;11.192;2023-03-16T00:33:25;95334.41;;;0.43;100.00
36828;BME280;22766;48.042;11.192;2023-03-16T00:35:52;95325.88;;;0.44;100.00
36828;BME280;22766;48.042;11.192;2023-03-16T00:38:30;95323.97;;;0.48;100.00
36828;BME280;22766;48.042;11.192;2023-03-16T00:40:57;95327.25;;;0.50;100.00
36828;BME280;22766;48.042;11.192;2023-03-16T00:43:24;95329.75;;;0.51;100.00
36828;BME280;22766;48.042;11.192;2023-03-16T00:46:00;95317.69;;;0.55;100.00
36828;BME280;22766;48.042;11.192;2023-03-16T00:48:37;95323.50;;;0.57;100.00
36828;BME280;22766;48.042;11.192;2023-03-16T00:51:06;95328.50;;;0.58;100.00
36828;BME280;22766;48.042;11.192;2023-03-16T00:53:34;95318.47;;;0.55;100.00
36828;BME280;22766;48.042;11.192;2023-03-16T00:56:02;95327.00;;;0.54;100.00
36828;BME280;22766;48.042;11.192;2023-03-16T00:58:33;95326.47;;;0.49;100.00
36828;BME280;22766;48.042;11.192;2023-03-16T01:01:05;95326.59;;;0.46;100.00
36828;BME280;22766;48.042;11.192;2023-03-16T01:03:33;95322.50;;;0.44;100.00
36828;BME280;22766;48.042;11.192;2023-03-16T01:06:09;95319.41;;;0.39;100.00
36828;BME280;22766;48.042;11.192;2023-03-16T01:08:38;95318.75;;;0.35;100.00
36828;BME280;22766;48.042;11.192;2023-03-16T01:11:09;95315.72;;;0.29;100.00
36828;BME280;22766;48.042;11.192;2023-03-16T01:13:38;95319.50;;;0.22;100.00
36828;BME280;22766;48.042;11.192;2023-03-16T01:16:05;95319.09;;;0.14;100.00
36828;BME280;22766;48.042;11.192;2023-03-16T01:18:33;95318.13;;;0.16;100.00
36828;BME280;22766;48.042;11.192;2023-03-16T01:21:01;95320.16;;;0.10;100.00
36828;BME280;22766;48.042;11.192;2023-03-16T01:23:31;95313.44;;;0.09;100.00
36828;BME280;22766;48.042;11.192;2023-03-16T01:25:59;95320.97;;;0.10;100.00
36828;BME280;22766;48.042;11.192;2023-03-16T01:28:28;95318.22;;;0.15;100.00
36828;BME280;22766;48.042;11.192;2023-03-16T01:31:09;95306.16;;;0.18;100.00
36828;BME280;22766;48.042;11.192;2023-03-16T01:33:37;95305.19;;;0.21;100.00
36828;BME280;22766;48.042;11.192;2023-03-16T01:36:10;95307.88;;;0.18;100.00
36828;BME280;22766;48.042;11.192;2023-03-16T01:38:47;95304.38;;;0.20;100.00
36828;BME280;22766;48.042;11.192;2023-03-16T01:41:14;95304.81;;;0.27;100.00
36828;BME280;22766;48.042;11.192;2023-03-16T01:43:41;95300.44;;;0.30;100.00
36828;BME280;22766;48.042;11.192;2023-03-16T01:49:15;95307.31;;;0.13;100.00
36828;BME280;22766;48.042;11.192;2023-03-16T01:56:55;95305.28;;;0.04;100.00
36828;BME280;22766;48.042;11.192;2023-03-16T01:59:28;95300.19;;;0.04;100.00
36828;BME280;22766;48.042;11.192;2023-03-16T02:01:56;95296.84;;;0.03;100.00
36828;BME280;22766;48.042;11.192;2023-03-16T02:04:37;95294.81;;;-0.06;100.00
36828;BME280;22766;48.042;11.192;2023-03-16T02:07:09;95297.97;;;-0.18;100.00
36828;BME280;22766;48.042;11.192;2023-03-16T02:09:39;95296.91;;;-0.30;100.00
36828;BME280;22766;48.042;11.192;2023-03-16T02:12:13;95301.88;;;-0.28;100.00
36828;BME280;22766;48.042;11.192;2023-03-16T02:14:48;95299.25;;;-0.42;100.00
36828;BME280;22766;48.042;11.192;2023-03-16T02:17:18;95298.09;;;-0.52;100.00
36828;BME280;22766;48.042;11.192;2023-03-16T02:22:13;95288.97;;;-0.72;100.00
36828;BME280;22766;48.042;11.192;2023-03-16T02:24:40;95289.03;;;-0.73;100.00
36828;BME280;22766;48.042;11.192;2023-03-16T02:27:13;95291.13;;;-0.81;100.00
36828;BME280;22766;48.042;11.192;2023-03-16T02:32:19;95293.19;;;-0.88;100.00
36828;BME280;22766;48.042;11.192;2023-03-16T02:34:47;95294.81;;;-0.87;100.00
36828;BME280;22766;48.042;11.192;2023-03-16T02:37:14;95297.41;;;-0.88;100.00
36828;BME280;22766;48.042;11.192;2023-03-16T02:39:41;95294.31;;;-0.93;100.00
36828;BME280;22766;48.042;11.192;2023-03-16T02:42:18;95297.16;;;-1.00;100.00
36828;BME280;22766;48.042;11.192;2023-03-16T02:44:52;95295.56;;;-1.02;100.00
36828;BME280;22766;48.042;11.192;2023-03-16T02:47:40;95295.66;;;-1.04;100.00
36828;BME280;22766;48.042;11.192;2023-03-16T02:50:09;95294.81;;;-1.04;100.00
36828;BME280;22766;48.042;11.192;2023-03-16T02:52:38;95293.03;;;-1.02;100.00
36828;BME280;22766;48.042;11.192;2023-03-16T02:55:06;95293.41;;;-1.10;100.00
36828;BME280;22766;48.042;11.192;2023-03-16T02:57:33;95291.88;;;-1.12;100.00
36828;BME280;22766;48.042;11.192;2023-03-16T03:00:06;95293.72;;;-1.16;100.00
36828;BME280;22766;48.042;11.192;2023-03-16T03:02:45;95294.09;;;-1.23;100.00
36828;BME280;22766;48.042;11.192;2023-03-16T03:05:12;95289.34;;;-1.29;100.00
36828;BME280;22766;48.042;11.192;2023-03-16T03:07:39;95285.00;;;-1.27;100.00
36828;BME280;22766;48.042;11.192;2023-03-16T03:10:07;95291.19;;;-1.33;100.00
36828;BME280;22766;48.042;11.192;2023-03-16T03:12:34;95294.91;;;-1.40;100.00
36828;BME280;22766;48.042;11.192;2023-03-16T03:15:04;95284.28;;;-1.46;100.00
36828;BME280;22766;48.042;11.192;2023-03-16T03:17:39;95283.59;;;-1.50;100.00
36828;BME280;22766;48.042;11.192;2023-03-16T03:20:06;95292.28;;;-1.55;100.00
36828;BME280;22766;48.042;11.192;2023-03-16T03:22:39;95284.63;;;-1.54;100.00
36828;BME280;22766;48.042;11.192;2023-03-16T03:25:07;95290.66;;;-1.56;100.00
36828;BME280;22766;48.042;11.192;2023-03-16T03:27:34;95286.94;;;-1.49;100.00
36828;BME280;22766;48.042;11.192;2023-03-16T03:30:05;95280.47;;;-1.55;100.00
36828;BME280;22766;48.042;11.192;2023-03-16T03:32:32;95277.94;;;-1.55;100.00
36828;BME280;22766;48.042;11.192;2023-03-16T03:34:58;95273.06;;;-1.59;100.00
36828;BME280;22766;48.042;11.192;2023-03-16T03:37:25;95279.50;;;-1.69;100.00
36828;BME280;22766;48.042;11.192;2023-03-16T03:39:52;95272.84;;;-1.72;100.00
36828;BME280;22766;48.042;11.192;2023-03-16T03:42:19;95273.06;;;-1.76;100.00
36828;BME280;22766;48.042;11.192;2023-03-16T03:44:45;95276.69;;;-1.82;100.00
36828;BME280;22766;48.042;11.192;2023-03-16T03:47:12;95278.47;;;-1.84;100.00
36828;BME280;22766;48.042;11.192;2023-03-16T03:49:39;95277.81;;;-1.88;100.00
36828;BME280;22766;48.042;11.192;2023-03-16T03:52:06;95278.84;;;-1.92;100.00
36828;BME280;22766;48.042;11.192;2023-03-16T03:54:33;95279.88;;;-1.96;100.00
36828;BME280;22766;48.042;11.192;2023-03-16T03:57:04;95274.22;;;-2.01;100.00
36828;BME280;22766;48.042;11.192;2023-03-16T03:59:31;95277.84;;;-2.06;100.00
36828;BME280;22766;48.042;11.192;2023-03-16T04:02:01;95274.72;;;-2.11;100.00
36828;BME280;22766;48.042;11.192;2023-03-16T04:04:39;95271.50;;;-2.15;100.00
36828;BME280;22766;48.042;11.192;2023-03-16T04:07:08;95262.44;;;-2.19;100.00
36828;BME280;22766;48.042;11.192;2023-03-16T04:09:35;95264.97;;;-2.19;100.00
36828;BME280;22766;48.042;11.192;2023-03-16T04:12:04;95271.78;;;-2.21;100.00
36828;BME280;22766;48.042;11.192;2023-03-16T04:14:32;95261.72;;;-2.22;100.00
36828;BME280;22766;48.042;11.192;2023-03-16T04:17:01;95267.00;;;-2.27;100.00
36828;BME280;22766;48.042;11.192;2023-03-16T04:19:32;95268.72;;;-2.27;100.00
36828;BME280;22766;48.042;11.192;2023-03-16T04:21:59;95267.88;;;-2.28;100.00
36828;BME280;22766;48.042;11.192;2023-03-16T04:24:26;95278.00;;;-2.28;100.00
36828;BME280;22766;48.042;11.192;2023-03-16T04:26:52;95285.66;;;-2.29;100.00
36828;BME280;22766;48.042;11.192;2023-03-16T04:29:20;95282.38;;;-2.31;100.00
36828;BME280;22766;48.042;11.192;2023-03-16T04:31:46;95290.72;;;-2.29;100.00
36828;BME280;22766;48.042;11.192;2023-03-16T04:34:14;95283.28;;;-2.32;100.00
36828;BME280;22766;48.042;11.192;2023-03-16T04:36:41;95286.63;;;-2.32;100.00
36828;BME280;22766;48.042;11.192;2023-03-16T04:39:09;95275.47;;;-2.28;100.00
36828;BME280;22766;48.042;11.192;2023-03-16T04:41:36;95269.66;;;-2.30;100.00
36828;BME280;22766;48.042;11.192;2023-03-16T04:44:11;95266.53;;;-2.35;100.00
36828;BME280;22766;48.042;11.192;2023-03-16T04:46:39;95264.91;;;-2.36;100.00
36828;BME280;22766;48.042;11.192;2023-03-16T04:49:08;95260.63;;;-2.35;100.00
36828;BME280;22766;48.042;11.192;2023-03-16T04:51:36;95260.59;;;-2.34;100.00
36828;BME280;22766;48.042;11.192;2023-03-16T04:54:08;95260.59;;;-2.34;100.00
36828;BME280;22766;48.042;11.192;2023-03-16T04:56:38;95259.84;;;-2.36;100.00
36828;BME280;22766;48.042;11.192;2023-03-16T04:59:26;95255.66;;;-2.37;100.00
36828;BME280;22766;48.042;11.192;2023-03-16T05:02:06;95247.94;;;-2.34;100.00
36828;BME280;22766;48.042;11.192;2023-03-16T05:04:34;95256.22;;;-2.30;100.00
36828;BME280;22766;48.042;11.192;2023-03-16T05:07:01;95248.63;;;-2.30;100.00
36828;BME280;22766;48.042;11.192;2023-03-16T05:09:32;95246.91;;;-2.30;100.00
36828;BME280;22766;48.042;11.192;2023-03-16T05:11:59;95245.00;;;-2.25;100.00
36828;BME280;22766;48.042;11.192;2023-03-16T05:14:27;95245.06;;;-2.26;100.00
36828;BME280;22766;48.042;11.192;2023-03-16T05:17:12;95241.56;;;-2.24;100.00
36828;BME280;22766;48.042;11.192;2023-03-16T05:19:41;95241.63;;;-2.25;100.00
36828;BME280;22766;48.042;11.192;2023-03-16T05:22:09;95244.91;;;-2.23;100.00
36828;BME280;22766;48.042;11.192;2023-03-16T05:24:38;95236.31;;;-2.19;100.00
36828;BME280;22766;48.042;11.192;2023-03-16T05:27:05;95237.19;;;-2.20;100.00
36828;BME280;22766;48.042;11.192;2023-03-16T05:29:32;95238.97;;;-2.22;100.00
36828;BME280;22766;48.042;11.192;2023-03-16T05:31:59;95247.38;;;-2.22;100.00
36828;BME280;22766;48.042;11.192;2023-03-16T05:34:27;95240.53;;;-2.20;100.00
36828;BME280;22766;48.042;11.192;2023-03-16T05:36:54;95238.75;;;-2.18;100.00
36828;BME280;22766;48.042;11.192;2023-03-16T05:39:21;95242.03;;;-2.16;100.00
36828;BME280;22766;48.042;11.192;2023-03-16T05:41:49;95252.06;;;-2.14;100.00
36828;BME280;22766;48.042;11.192;2023-03-16T05:44:26;95240.84;;;-2.09;100.00
36828;BME280;22766;48.042;11.192;2023-03-16T05:47:05;95233.94;;;-2.05;100.00
36828;BME280;22766;48.042;11.192;2023-03-16T05:49:35;95229.28;;;-1.96;100.00
36828;BME280;22766;48.042;11.192;2023-03-16T05:52:07;95228.78;;;-1.85;100.00
36828;BME280;22766;48.042;11.192;2023-03-16T05:54:34;95228.25;;;-1.74;100.00
36828;BME280;22766;48.042;11.192;2023-03-16T05:57:01;95224.97;;;-1.59;100.00
36828;BME280;22766;48.042;11.192;2023-03-16T05:59:30;95229.63;;;-1.50;100.00
36828;BME280;22766;48.042;11.192;2023-03-16T06:01:57;95228.63;;;-1.48;100.00
36828;BME280;22766;48.042;11.192;2023-03-16T06:04:24;95231.44;;;-1.37;100.00
36828;BME280;22766;48.042;11.192;2023-03-16T06:06:51;95236.88;;;-1.27;100.00
36828;BME280;22766;48.042;11.192;2023-03-16T06:09:21;95232.19;;;-1.18;100.00
36828;BME280;22766;48.042;11.192;2023-03-16T06:11:47;95232.53;;;-1.08;100.00
36828;BME280;22766;48.042;11.192;2023-03-16T06:14:16;95242.06;;;-0.96;100.00
36828;BME280;22766;48.042;11.192;2023-03-16T06:16:43;95240.72;;;-0.86;100.00
36828;BME280;22766;48.042;11.192;2023-03-16T06:19:11;95244.25;;;-0.73;100.00
36828;BME280;22766;48.042;11.192;2023-03-16T06:21:38;95244.00;;;-0.68;100.00
36828;BME280;22766;48.042;11.192;2023-03-16T06:24:08;95242.72;;;-0.60;100.00
36828;BME280;22766;48.042;11.192;2023-03-16T06:26:35;95246.41;;;-0.50;100.00
36828;BME280;22766;48.042;11.192;2023-03-16T06:29:05;95245.19;;;-0.43;100.00
36828;BME280;22766;48.042;11.192;2023-03-16T06:31:34;95244.88;;;-0.37;100.00
36828;BME280;22766;48.042;11.192;2023-03-16T06:34:02;95237.00;;;-0.17;100.00
36828;BME280;22766;48.042;11.192;2023-03-16T06:36:29;95244.09;;;-0.08;100.00
36828;BME280;22766;48.042;11.192;2023-03-16T06:38:59;95241.75;;;-0.11;100.00
36828;BME280;22766;48.042;11.192;2023-03-16T06:41:36;95245.34;;;0.01;100.00
36828;BME280;22766;48.042;11.192;2023-03-16T06:44:03;95248.09;;;0.12;100.00
36828;BME280;22766;48.042;11.192;2023-03-16T06:46:34;95243.63;;;0.17;100.00
36828;BME280;22766;48.042;11.192;2023-03-16T06:49:02;95230.75;;;0.20;100.00
36828;BME280;22766;48.042;11.192;2023-03-16T06:51:30;95234.75;;;0.24;100.00
36828;BME280;22766;48.042;11.192;2023-03-16T06:53:57;95228.81;;;0.39;100.00
36828;BME280;22766;48.042;11.192;2023-03-16T06:56:24;95225.84;;;0.61;100.00
36828;BME280;22766;48.042;11.192;2023-03-16T06:58:54;95228.06;;;0.67;100.00
36828;BME280;22766;48.042;11.192;2023-03-16T07:01:21;95234.44;;;0.88;100.00
36828;BME280;22766;48.042;11.192;2023-03-16T07:03:48;95233.72;;;0.86;100.00
36828;BME280;22766;48.042;11.192;2023-03-16T07:06:23;95225.94;;;0.89;100.00
36828;BME280;22766;48.042;11.192;2023-03-16T07:08:50;95226.03;;;1.02;100.00
36828;BME280;22766;48.042;11.192;2023-03-16T07:11:18;95226.59;;;1.35;100.00
36828;BME280;22766;48.042;11.192;2023-03-16T07:13:45;95222.41;;;1.20;100.00
36828;BME280;22766;48.042;11.192;2023-03-16T07:16:14;95223.94;;;1.22;100.00
36828;BME280;22766;48.042;11.192;2023-03-16T07:18:41;95220.22;;;1.42;100.00
36828;BME280;22766;48.042;11.192;2023-03-16T07:21:11;95215.66;;;1.61;100.00
36828;BME280;22766;48.042;11.192;2023-03-16T07:23:38;95224.53;;;1.82;100.00
36828;BME280;22766;48.042;11.192;2023-03-16T07:26:07;95221.75;;;1.99;100.00
36828;BME280;22766;48.042;11.192;2023-03-16T07:28:38;95223.38;;;2.00;100.00
36828;BME280;22766;48.042;11.192;2023-03-16T07:31:06;95221.50;;;2.16;100.00
36828;BME280;22766;48.042;11.192;2023-03-16T07:33:37;95221.69;;;2.40;100.00
36828;BME280;22766;48.042;11.192;2023-03-16T07:36:07;95221.22;;;2.60;100.00
36828;BME280;22766;48.042;11.192;2023-03-16T07:38:40;95232.56;;;2.68;100.00
36828;BME280;22766;48.042;11.192;2023-03-16T07:41:09;95228.09;;;2.97;100.00
36828;BME280;22766;48.042;11.192;2023-03-16T07:43:36;95231.47;;;3.10;100.00
36828;BME280;22766;48.042;11.192;2023-03-16T07:46:03;95239.03;;;3.24;100.00
36828;BME280;22766;48.042;11.192;2023-03-16T07:48:30;95243.22;;;3.38;100.00
36828;BME280;22766;48.042;11.192;2023-03-16T07:51:02;95246.47;;;3.52;100.00
36828;BME280;22766;48.042;11.192;2023-03-16T07:53:29;95244.41;;;3.57;100.00
36828;BME280;22766;48.042;11.192;2023-03-16T07:56:17;95238.53;;;3.93;100.00
36828;BME280;22766;48.042;11.192;2023-03-16T07:58:48;95243.88;;;4.14;100.00
36828;BME280;22766;48.042;11.192;2023-03-16T08:01:15;95250.03;;;4.35;100.00
36828;BME280;22766;48.042;11.192;2023-03-16T08:03:41;95255.06;;;4.47;100.00
36828;BME280;22766;48.042;11.192;2023-03-16T08:06:10;95248.94;;;4.50;100.00
36828;BME280;22766;48.042;11.192;2023-03-16T08:08:37;95251.19;;;4.65;100.00
36828;BME280;22766;48.042;11.192;2023-03-16T08:11:05;95242.88;;;4.74;100.00
36828;BME280;22766;48.042;11.192;2023-03-16T08:13:46;95245.16;;;4.66;100.00
36828;BME280;22766;48.042;11.192;2023-03-16T08:16:13;95248.63;;;4.65;100.00
36828;BME280;22766;48.042;11.192;2023-03-16T08:18:42;95259.13;;;5.08;100.00
36828;BME280;22766;48.042;11.192;2023-03-16T08:21:09;95249.22;;;5.04;100.00
36828;BME280;22766;48.042;11.192;2023-03-16T08:23:36;95249.28;;;5.15;100.00
36828;BME280;22766;48.042;11.192;2023-03-16T08:26:04;95252.75;;;5.36;100.00
36828;BME280;22766;48.042;11.192;2023-03-16T08:28:35;95248.25;;;5.50;100.00
36828;BME280;22766;48.042;11.192;2023-03-16T08:31:06;95244.66;;;5.64;100.00
36828;BME280;22766;48.042;11.192;2023-03-16T08:33:40;95236.84;;;5.77;100.00
36828;BME280;22766;48.042;11.192;2023-03-16T08:36:09;95243.50;;;5.79;100.00
36828;BME280;22766;48.042;11.192;2023-03-16T08:38:37;95246.06;;;6.01;100.00
36828;BME280;22766;48.042;11.192;2023-03-16T08:41:08;95244.31;;;6.44;100.00
36828;BME280;22766;48.042;11.192;2023-03-16T08:43:35;95245.91;;;6.56;100.00
36828;BME280;22766;48.042;11.192;2023-03-16T08:46:03;95252.03;;;6.76;100.00
36828;BME280;22766;48.042;11.192;2023-03-16T08:48:41;95249.28;;;6.89;100.00
36828;BME280;22766;48.042;11.192;2023-03-16T08:51:09;95249.16;;;7.31;100.00
36828;BME280;22766;48.042;11.192;2023-03-16T08:53:37;95249.78;;;7.44;99.32
36828;BME280;22766;48.042;11.192;2023-03-16T08:56:08;95250.88;;;7.72;97.35
36828;BME280;22766;48.042;11.192;2023-03-16T08:58:37;95245.38;;;7.86;92.92
36828;BME280;22766;48.042;11.192;2023-03-16T09:01:05;95242.53;;;7.89;92.65
36828;BME280;22766;48.042;11.192;2023-03-16T09:03:32;95246.53;;;7.73;89.54
36828;BME280;22766;48.042;11.192;2023-03-16T09:06:01;95242.75;;;7.67;92.97
36828;BME280;22766;48.042;11.192;2023-03-16T09:08:29;95235.06;;;7.77;87.76
36828;BME280;22766;48.042;11.192;2023-03-16T09:11:03;95243.44;;;7.48;85.72
36828;BME280;22766;48.042;11.192;2023-03-16T09:13:33;95237.75;;;7.45;86.93
36828;BME280;22766;48.042;11.192;2023-03-16T09:16:01;95239.59;;;7.94;85.30
36828;BME280;22766;48.042;11.192;2023-03-16T09:18:28;95235.22;;;7.85;85.05
36828;BME280;22766;48.042;11.192;2023-03-16T09:20:59;95229.63;;;8.19;80.75
36828;BME280;22766;48.042;11.192;2023-03-16T09:23:27;95240.72;;;8.60;80.12
36828;BME280;22766;48.042;11.192;2023-03-16T09:26:01;95229.19;;;8.73;80.62
36828;BME280;22766;48.042;11.192;2023-03-16T09:28:29;95230.03;;;8.74;78.30
36828;BME280;22766;48.042;11.192;2023-03-16T09:30:59;95235.03;;;8.94;71.44
36828;BME280;22766;48.042;11.192;2023-03-16T09:33:27;95233.38;;;9.12;78.29
36828;BME280;22766;48.042;11.192;2023-03-16T09:35:55;95235.00;;;9.13;74.13
36828;BME280;22766;48.042;11.192;2023-03-16T09:38:24;95234.28;;;9.40;71.07
36828;BME280;22766;48.042;11.192;2023-03-16T09:46:10;95227.41;;;10.31;72.27
36828;BME280;22766;48.042;11.192;2023-03-16T09:48:40;95236.44;;;10.63;67.58
36828;BME280;22766;48.042;11.192;2023-03-16T09:51:19;95231.50;;;10.52;66.43
36828;BME280;22766;48.042;11.192;2023-03-16T09:53:51;95234.00;;;10.44;62.97
36828;BME280;22766;48.042;11.192;2023-03-16T09:56:41;95235.56;;;10.00;67.00
36828;BME280;22766;48.042;11.192;2023-03-16T10:06:10;95220.81;;;10.64;62.00
36828;BME280;22766;48.042;11.192;2023-03-16T10:09:06;95221.31;;;10.85;65.59
36828;BME280;22766;48.042;11.192;2023-03-16T10:11:42;95222.19;;;11.11;62.62
36828;BME280;22766;48.042;11.192;2023-03-16T10:17:43;95225.56;;;11.55;56.55
36828;BME280;22766;48.042;11.192;2023-03-16T10:20:15;95220.06;;;11.76;58.87
36828;BME280;22766;48.042;11.192;2023-03-16T10:22:45;95218.81;;;11.88;54.85
36828;BME280;22766;48.042;11.192;2023-03-16T10:27:51;95213.53;;;12.39;48.53
36828;BME280;22766;48.042;11.192;2023-03-16T10:30:25;95221.78;;;11.67;51.00
36828;BME280;22766;48.042;11.192;2023-03-16T10:32:56;95212.81;;;11.79;50.25
36828;BME280;22766;48.042;11.192;2023-03-16T10:35:33;95204.03;;;11.72;51.99
36828;BME280;22766;48.042;11.192;2023-03-16T10:38:03;95202.72;;;12.60;50.37
36828;BME280;22766;48.042;11.192;2023-03-16T10:40:31;95195.13;;;12.58;45.50
36828;BME280;22766;48.042;11.192;2023-03-16T10:43:12;95203.13;;;13.05;46.89
36828;BME280;22766;48.042;11.192;2023-03-16T10:45:41;95198.28;;;13.18;46.16
36828;BME280;22766;48.042;11.192;2023-03-16T10:48:13;95196.94;;;13.30;45.01
36828;BME280;22766;48.042;11.192;2023-03-16T10:50:48;95187.44;;;13.06;46.76
36828;BME280;22766;48.042;11.192;2023-03-16T10:53:23;95175.97;;;13.72;44.38
36828;BME280;22766;48.042;11.192;2023-03-16T10:55:57;95167.41;;;13.55;43.86
36828;BME280;22766;48.042;11.192;2023-03-16T10:58:28;95174.44;;;13.93;44.60
36828;BME280;22766;48.042;11.192;2023-03-16T11:00:56;95168.78;;;13.90;42.45
36828;BME280;22766;48.042;11.192;2023-03-16T11:03:31;95162.41;;;13.92;43.37
36828;BME280;22766;48.042;11.192;2023-03-16T11:06:05;95164.53;;;13.89;44.03
36828;BME280;22766;48.042;11.192;2023-03-16T11:08:34;95167.03;;;14.74;40.70
36828;BME280;22766;48.042;11.192;2023-03-16T11:11:30;95157.63;;;14.96;39.76
36828;BME280;22766;48.042;11.192;2023-03-16T11:14:02;95161.72;;;15.13;39.15
36828;BME280;22766;48.042;11.192;2023-03-16T11:25:01;95157.44;;;14.97;36.76
36828;BME280;22766;48.042;11.192;2023-03-16T11:27:52;95144.41;;;15.72;36.81
36828;BME280;22766;48.042;11.192;2023-03-16T11:32:56;95127.53;;;15.16;35.67
36828;BME280;22766;48.042;11.192;2023-03-16T11:38:34;95145.09;;;15.80;33.92
36828;BME280;22766;48.042;11.192;2023-03-16T11:41:08;95140.66;;;15.74;30.57
36828;BME280;22766;48.042;11.192;2023-03-16T11:51:37;95124.59;;;16.78;31.41
36828;BME280;22766;48.042;11.192;2023-03-16T12:11:19;95102.72;;;15.14;31.73
36828;BME280;22766;48.042;11.192;2023-03-16T12:19:20;95089.00;;;16.28;30.66
36828;BME280;22766;48.042;11.192;2023-03-16T12:21:58;95088.47;;;17.24;29.00
36828;BME280;22766;48.042;11.192;2023-03-16T12:24:33;95091.06;;;17.51;28.68
36828;BME280;22766;48.042;11.192;2023-03-16T12:27:01;95089.59;;;18.17;28.54
36828;BME280;22766;48.042;11.192;2023-03-16T12:29:55;95090.16;;;19.06;28.10
36828;BME280;22766;48.042;11.192;2023-03-16T12:32:41;95081.00;;;19.74;27.57
36828;BME280;22766;48.042;11.192;2023-03-16T12:36:12;95088.75;;;18.97;29.86
36828;BME280;22766;48.042;11.192;2023-03-16T12:38:21;95077.25;;;17.98;29.59
36828;BME280;22766;48.042;11.192;2023-03-16T12:43:46;95072.84;;;18.72;29.15
36828;BME280;22766;48.042;11.192;2023-03-16T12:48:55;95069.19;;;17.93;31.21
36828;BME280;22766;48.042;11.192;2023-03-16T12:51:41;95075.91;;;17.34;31.95
36828;BME280;22766;48.042;11.192;2023-03-16T12:54:23;95065.66;;;17.05;31.36
36828;BME280;22766;48.042;11.192;2023-03-16T12:57:23;95062.63;;;18.10;31.77
36828;BME280;22766;48.042;11.192;2023-03-16T12:59:56;95064.19;;;17.57;30.54
36828;BME280;22766;48.042;11.192;2023-03-16T13:02:28;95052.84;;;17.44;29.68
36828;BME280;22766;48.042;11.192;2023-03-16T13:05:01;95055.69;;;18.43;29.80
36828;BME280;22766;48.042;11.192;2023-03-16T13:07:29;95064.63;;;18.08;29.23
36828;BME280;22766;48.042;11.192;2023-03-16T13:10:05;95065.97;;;18.71;30.14
36828;BME280;22766;48.042;11.192;2023-03-16T13:12:38;95061.47;;;18.32;29.46
36828;BME280;22766;48.042;11.192;2023-03-16T13:17:43;95060.38;;;19.07;28.47
36828;BME280;22766;48.042;11.192;2023-03-16T13:28:32;95049.78;;;17.00;32.11
36828;BME280;22766;48.042;11.192;2023-03-16T13:31:00;95062.81;;;17.55;31.12
36828;BME280;22766;48.042;11.192;2023-03-16T13:33:36;95050.78;;;17.67;30.30
36828;BME280;22766;48.042;11.192;2023-03-16T13:36:04;95048.06;;;17.88;30.46
36828;BME280;22766;48.042;11.192;2023-03-16T13:38:34;95053.50;;;19.06;29.11
36828;BME280;22766;48.042;11.192;2023-03-16T13:41:09;95048.22;;;20.15;28.41
36828;BME280;22766;48.042;11.192;2023-03-16T13:43:42;95046.03;;;19.29;27.08
36828;BME280;22766;48.042;11.192;2023-03-16T13:46:18;95041.44;;;18.46;27.93
36828;BME280;22766;48.042;11.192;2023-03-16T13:48:50;95043.50;;;17.22;29.12
36828;BME280;22766;48.042;11.192;2023-03-16T13:51:18;95039.94;;;18.24;29.86
36828;BME280;22766;48.042;11.192;2023-03-16T13:53:47;95041.44;;;18.98;29.12
36828;BME280;22766;48.042;11.192;2023-03-16T13:56:16;95037.84;;;18.80;28.37
36828;BME280;22766;48.042;11.192;2023-03-16T13:58:46;95034.16;;;19.52;28.73
36828;BME280;22766;48.042;11.192;2023-03-16T14:01:23;95028.72;;;19.47;27.68
36828;BME280;22766;48.042;11.192;2023-03-16T14:03:52;95033.00;;;18.96;29.26
36828;BME280;22766;48.042;11.192;2023-03-16T14:06:25;95029.91;;;19.58;27.82
36828;BME280;22766;48.042;11.192;2023-03-16T14:08:56;95023.72;;;19.90;27.42
36828;BME280;22766;48.042;11.192;2023-03-16T14:11:25;95031.44;;;19.79;28.14
36828;BME280;22766;48.042;11.192;2023-03-16T14:13:54;95028.31;;;20.01;27.44
36828;BME280;22766;48.042;11.192;2023-03-16T14:16:23;95028.22;;;21.51;26.63
36828;BME280;22766;48.042;11.192;2023-03-16T14:19:01;95031.25;;;21.29;26.50
36828;BME280;22766;48.042;11.192;2023-03-16T14:21:30;95029.00;;;21.15;26.20
36828;BME280;22766;48.042;11.192;2023-03-16T14:23:59;95027.56;;;20.88;26.38
36828;BME280;22766;48.042;11.192;2023-03-16T14:26:39;95025.16;;;20.62;26.82
36828;BME280;22766;48.042;11.192;2023-03-16T14:31:47;95024.28;;;19.48;26.63
36828;BME280;22766;48.042;11.192;2023-03-16T14:36:47;95019.25;;;19.40;28.06
36828;BME280;22766;48.042;11.192;2023-03-16T14:39:18;95021.28;;;19.44;27.81
36828;BME280;22766;48.042;11.192;2023-03-16T14:41:49;95015.94;;;20.21;26.73
36828;BME280;22766;48.042;11.192;2023-03-16T14:44:23;95012.69;;;20.82;26.34